Time;durP1;ratioP1;P1;durP2;ratioP2;P2;SDS_P1;SDS_P2;PMS_P1;PMS_P2;Temp;Humidity;BMP_temperature;BMP_pressure;BME280_temperature;BME280_humidity;BME280_pressure;Samples;Min_cycle;Max_cycle;Signal;HPM_P1;HPM_P2
2023/07/16 00:01:31;;;;;;;16.77;4.25;;;28.50;84.40;;;;;;5002748;28;20478;-88
2023/07/16 00:04:01;;;;;;;9.83;3.87;;;28.50;84.20;;;;;;4988932;28;20520;-91
2023/07/16 00:06:28;;;;;;;10.23;4.13;;;28.40;84.10;;;;;;5010571;28;20426;-88
2023/07/16 00:09:03;;;;;;;10.48;4.20;;;28.40;83.90;;;;;;4973029;28;20474;-90
2023/07/16 00:11:33;;;;;;;10.00;3.90;;;28.40;84.10;;;;;;4991539;28;20426;-89
2023/07/16 00:14:03;;;;;;;11.32;4.07;;;28.40;84.50;;;;;;5005618;28;20435;-89
2023/07/16 00:16:31;;;;;;;9.45;3.95;;;28.40;84.30;;;;;;5004889;28;20418;-89
2023/07/16 00:19:01;;;;;;;10.48;4.07;;;28.50;84.60;;;;;;4968143;28;20844;-89
2023/07/16 00:21:28;;;;;;;9.70;4.00;;;28.50;84.70;;;;;;4988547;28;20450;-88
2023/07/16 00:23:56;;;;;;;9.15;4.03;;;28.50;84.40;;;;;;4985461;28;20751;-88
2023/07/16 00:26:23;;;;;;;10.80;4.22;;;28.60;84.30;;;;;;5001304;28;20540;-88
2023/07/16 00:28:51;;;;;;;10.27;4.00;;;28.70;84.10;;;;;;4982813;28;20425;-88
2023/07/16 00:31:23;;;;;;;12.23;3.87;;;28.80;84.10;;;;;;5006677;28;20414;-89
2023/07/16 00:33:52;;;;;;;14.00;4.18;;;28.90;84.10;;;;;;4979758;28;20494;-89
2023/07/16 00:36:18;;;;;;;11.00;4.18;;;28.90;83.70;;;;;;4995567;28;20411;-88
2023/07/16 00:38:50;;;;;;;9.55;4.07;;;28.90;83.90;;;;;;5002364;28;20442;-96
2023/07/16 00:41:17;;;;;;;11.90;4.22;;;28.90;83.70;;;;;;4990404;28;20418;-88
2023/07/16 00:43:48;;;;;;;12.07;3.85;;;28.90;84.00;;;;;;4969896;28;20447;-86
2023/07/16 00:46:16;;;;;;;13.30;4.10;;;28.90;83.70;;;;;;4965192;28;20948;-87
2023/07/16 00:48:46;;;;;;;10.02;3.90;;;28.90;83.90;;;;;;4999572;28;20418;-87
2023/07/16 00:51:14;;;;;;;12.75;4.38;;;28.80;84.10;;;;;;4965173;28;20775;-88
2023/07/16 00:53:42;;;;;;;12.90;4.22;;;28.70;84.00;;;;;;5003623;28;20423;-88
2023/07/16 00:56:11;;;;;;;10.00;4.07;;;28.50;83.90;;;;;;5000364;28;20422;-88
2023/07/16 00:58:38;;;;;;;8.38;4.07;;;28.40;84.50;;;;;;4972639;28;20857;-87
2023/07/16 01:01:07;;;;;;;12.93;4.10;;;28.40;84.60;;;;;;5004911;28;20423;-88
2023/07/16 01:03:37;;;;;;;8.57;4.00;;;28.40;84.60;;;;;;5004549;28;20516;-88
2023/07/16 01:06:49;;;;;;;13.88;4.05;;;28.40;84.80;;;;;;5003125;28;20900;-88
2023/07/16 01:09:21;;;;;;;9.07;4.13;;;28.50;84.80;;;;;;4993773;28;20427;-90
2023/07/16 01:11:50;;;;;;;11.63;4.05;;;28.50;84.60;;;;;;4986743;28;20465;-88
2023/07/16 01:14:19;;;;;;;13.98;4.22;;;28.50;84.50;;;;;;4999006;28;20418;-89
2023/07/16 01:16:48;;;;;;;10.43;4.10;;;28.50;84.40;;;;;;4986293;28;20455;-88
2023/07/16 01:19:14;;;;;;;11.00;4.40;;;28.50;84.50;;;;;;5006363;28;20743;-88
2023/07/16 01:22:14;;;;;;;12.93;4.32;;;28.50;84.60;;;;;;5005520;28;20809;-88
2023/07/16 01:24:56;;;;;;;15.48;4.28;;;28.40;84.50;;;;;;5020817;28;21206;-89
2023/07/16 01:28:01;;;;;;;6.93;3.70;;;28.40;84.90;;;;;;4995384;28;20414;-88
2023/07/16 01:30:32;;;;;;;9.57;4.20;;;28.40;85.60;;;;;;4996484;28;20886;-88
2023/07/16 01:33:03;;;;;;;11.65;3.90;;;28.30;85.00;;;;;;4989021;28;20498;-92
2023/07/16 01:35:34;;;;;;;10.85;3.70;;;28.30;85.10;;;;;;5004492;28;20586;-89
2023/07/16 01:38:02;;;;;;;13.10;4.40;;;28.30;85.10;;;;;;4970329;28;20559;-89
2023/07/16 01:40:31;;;;;;;11.40;4.07;;;28.30;85.00;;;;;;5001360;28;20453;-88
2023/07/16 01:43:01;;;;;;;11.82;4.00;;;28.30;85.10;;;;;;5019455;28;20461;-90
2023/07/16 01:45:28;;;;;;;10.85;4.10;;;28.40;85.30;;;;;;5001201;28;20429;-87
2023/07/16 01:48:30;;;;;;;11.88;4.10;;;28.30;85.30;;;;;;4973100;28;20431;-89
2023/07/16 01:50:58;;;;;;;11.23;3.83;;;28.30;85.40;;;;;;5009013;28;20445;-88
2023/07/16 01:53:36;;;;;;;12.60;4.03;;;28.20;85.40;;;;;;5010272;28;20422;-88
2023/07/16 01:56:04;;;;;;;10.82;4.13;;;28.20;85.20;;;;;;5025010;28;21677;-88
2023/07/16 01:58:34;;;;;;;15.23;4.00;;;28.20;85.50;;;;;;4993467;28;20844;-88
2023/07/16 02:01:01;;;;;;;12.23;4.50;;;28.20;85.50;;;;;;4989994;28;20483;-87
2023/07/16 02:03:30;;;;;;;9.95;4.40;;;28.20;85.50;;;;;;5009360;28;20428;-88
2023/07/16 02:05:57;;;;;;;10.85;3.75;;;28.20;85.60;;;;;;4969149;28;20909;-87
2023/07/16 02:08:25;;;;;;;12.98;4.10;;;28.20;85.50;;;;;;4990425;28;21102;-88
2023/07/16 02:10:54;;;;;;;9.88;3.80;;;28.10;85.30;;;;;;4993377;28;20441;-88
2023/07/16 02:13:22;;;;;;;10.95;4.45;;;28.00;85.40;;;;;;5006567;28;20441;-88
2023/07/16 02:15:51;;;;;;;8.32;3.92;;;28.00;85.60;;;;;;4995466;28;20480;-88
2023/07/16 02:18:18;;;;;;;11.38;3.97;;;28.00;85.70;;;;;;5008429;28;20927;-87
2023/07/16 02:20:49;;;;;;;8.70;4.23;;;28.00;85.90;;;;;;4976907;28;20423;-89
2023/07/16 02:23:16;;;;;;;6.82;3.80;;;28.00;86.00;;;;;;4977257;28;20419;-88
2023/07/16 02:25:42;;;;;;;11.25;4.05;;;27.90;86.20;;;;;;5007000;28;20420;-87
2023/07/16 02:28:09;;;;;;;9.50;4.27;;;27.90;86.40;;;;;;5006646;28;20467;-87
2023/07/16 02:30:35;;;;;;;10.60;4.15;;;27.90;86.30;;;;;;5010489;28;20435;-87
2023/07/16 02:33:02;;;;;;;9.75;4.20;;;27.90;86.50;;;;;;4995643;28;20422;-86
2023/07/16 02:35:29;;;;;;;20.23;4.60;;;27.80;86.70;;;;;;4976636;28;20419;-87
2023/07/16 02:38:00;;;;;;;22.10;4.97;;;27.80;86.40;;;;;;5009040;28;20734;-87
2023/07/16 02:40:30;;;;;;;16.98;4.53;;;27.80;86.40;;;;;;5026543;28;20510;-87
2023/07/16 02:42:57;;;;;;;12.90;4.10;;;27.80;86.30;;;;;;5006493;28;21199;-88
2023/07/16 02:45:34;;;;;;;11.80;4.30;;;27.70;87.20;;;;;;4973963;28;20434;-87
2023/07/16 02:48:00;;;;;;;14.60;4.60;;;27.70;86.60;;;;;;4992873;28;20427;-87
2023/07/16 02:50:42;;;;;;;13.77;4.32;;;27.70;86.60;;;;;;4990106;28;20419;-87
2023/07/16 02:53:10;;;;;;;6.70;4.00;;;27.60;86.60;;;;;;4992260;28;20998;-87
2023/07/16 02:55:37;;;;;;;7.30;3.57;;;27.60;86.70;;;;;;4990718;28;20411;-87
2023/07/16 02:58:04;;;;;;;9.13;4.22;;;27.50;86.50;;;;;;4989529;28;20423;-87
2023/07/16 03:00:31;;;;;;;9.95;4.30;;;27.50;86.60;;;;;;4992619;28;20411;-87
2023/07/16 03:02:59;;;;;;;10.00;4.40;;;27.40;86.70;;;;;;5009006;28;20431;-87
2023/07/16 03:05:28;;;;;;;8.70;4.05;;;27.40;86.90;;;;;;4992942;28;20514;-87
2023/07/16 03:07:56;;;;;;;8.05;3.83;;;27.30;87.50;;;;;;5003410;28;20415;-87
2023/07/16 03:10:23;;;;;;;11.40;4.40;;;27.30;87.40;;;;;;4992025;28;20426;-87
2023/07/16 03:12:50;;;;;;;10.68;3.92;;;27.30;87.60;;;;;;4995170;28;20419;-87
2023/07/16 03:15:16;;;;;;;9.65;4.05;;;27.20;87.80;;;;;;4975789;28;20462;-87
2023/07/16 03:17:43;;;;;;;13.45;4.13;;;27.20;88.10;;;;;;5008692;28;20426;-87
2023/07/16 03:20:13;;;;;;;11.35;4.40;;;27.20;88.30;;;;;;4992659;28;20415;-87
2023/07/16 03:22:43;;;;;;;10.32;3.90;;;27.20;88.20;;;;;;4988757;28;20454;-87
2023/07/16 03:25:15;;;;;;;10.85;4.15;;;27.20;88.10;;;;;;4974773;28;20424;-87
2023/07/16 03:27:42;;;;;;;10.00;4.32;;;27.20;88.50;;;;;;4988181;28;20578;-87
2023/07/16 03:30:09;;;;;;;11.43;4.40;;;27.20;88.50;;;;;;4973222;28;20463;-87
2023/07/16 03:32:37;;;;;;;12.50;4.30;;;27.30;88.60;;;;;;4994887;28;20420;-88
2023/07/16 03:35:03;;;;;;;12.55;4.07;;;27.30;89.10;;;;;;5023547;28;20728;-88
2023/07/16 03:37:33;;;;;;;11.15;4.25;;;27.30;89.00;;;;;;4992064;28;20731;-90
2023/07/16 03:40:24;;;;;;;16.13;4.75;;;27.50;89.20;;;;;;5006166;28;20415;-89
2023/07/16 03:42:51;;;;;;;13.93;4.67;;;27.50;89.00;;;;;;4998035;28;20452;-88
2023/07/16 03:45:19;;;;;;;11.23;4.18;;;27.60;89.10;;;;;;4987863;28;20411;-86
2023/07/16 03:47:50;;;;;;;12.60;4.07;;;27.60;89.40;;;;;;5007452;28;20446;-88
2023/07/16 03:50:21;;;;;;;10.43;4.45;;;27.60;89.40;;;;;;5010718;28;20421;-88
2023/07/16 03:52:50;;;;;;;9.57;4.38;;;27.60;89.10;;;;;;4989568;28;20718;-86
2023/07/16 03:55:17;;;;;;;8.80;4.10;;;27.70;89.70;;;;;;5003169;28;20419;-89
2023/07/16 03:57:44;;;;;;;11.93;4.50;;;27.70;89.90;;;;;;4987374;28;20431;-90
2023/07/16 04:00:13;;;;;;;11.50;4.27;;;27.60;89.70;;;;;;4987242;28;20458;-86
2023/07/16 04:02:40;;;;;;;12.95;4.40;;;27.60;90.00;;;;;;5003224;28;20601;-86
2023/07/16 04:05:11;;;;;;;11.07;4.10;;;27.70;89.90;;;;;;4990076;28;20466;-87
2023/07/16 04:07:40;;;;;;;15.68;4.38;;;27.70;90.00;;;;;;4974363;28;20999;-88
2023/07/16 04:10:08;;;;;;;13.73;4.30;;;27.70;90.00;;;;;;5006971;28;20469;-87
2023/07/16 04:12:35;;;;;;;11.65;4.47;;;27.70;89.80;;;;;;5006994;28;20639;-87
2023/07/16 04:15:11;;;;;;;13.73;4.40;;;27.70;90.10;;;;;;4972839;28;20526;-86
2023/07/16 04:17:38;;;;;;;12.75;4.57;;;27.70;90.20;;;;;;5002354;28;20505;-87
2023/07/16 04:20:06;;;;;;;12.40;4.55;;;27.80;90.30;;;;;;4993911;28;20419;-87
2023/07/16 04:22:40;;;;;;;12.70;4.45;;;27.80;90.20;;;;;;5015853;28;21420;-86
2023/07/16 04:25:06;;;;;;;11.88;4.35;;;27.90;90.30;;;;;;4989609;28;20427;-86
2023/07/16 04:27:35;;;;;;;11.97;4.50;;;27.90;90.50;;;;;;5003071;28;20406;-87
2023/07/16 04:30:02;;;;;;;15.07;4.65;;;28.00;90.80;;;;;;4991270;28;20415;-87
2023/07/16 04:32:30;;;;;;;11.88;4.20;;;28.10;90.90;;;;;;4959810;28;20446;-86
2023/07/16 04:34:56;;;;;;;13.20;4.50;;;28.20;90.80;;;;;;4989818;28;20424;-86
2023/07/16 04:37:23;;;;;;;13.05;4.40;;;28.30;91.00;;;;;;5006432;28;20434;-87
2023/07/16 04:39:50;;;;;;;10.60;4.30;;;28.40;91.40;;;;;;5019126;28;20430;-86
2023/07/16 04:42:16;;;;;;;14.18;4.47;;;28.40;91.30;;;;;;5003193;28;20454;-86
2023/07/16 04:44:45;;;;;;;12.70;4.30;;;28.40;91.30;;;;;;5019924;28;20417;-88
2023/07/16 04:47:14;;;;;;;10.18;4.15;;;28.50;91.30;;;;;;4984181;28;21044;-88
2023/07/16 04:49:41;;;;;;;13.27;4.40;;;28.60;91.40;;;;;;5004209;28;20477;-88
2023/07/16 04:52:08;;;;;;;15.30;4.63;;;28.70;91.10;;;;;;4990786;28;20423;-85
2023/07/16 04:54:38;;;;;;;10.60;4.53;;;28.70;91.30;;;;;;4989735;28;20573;-89
2023/07/16 04:57:07;;;;;;;9.23;4.45;;;28.70;91.10;;;;;;5002534;28;20469;-88
2023/07/16 04:59:35;;;;;;;12.07;5.00;;;28.80;91.20;;;;;;4988779;28;20419;-87
2023/07/16 05:02:05;;;;;;;9.55;4.25;;;28.80;90.80;;;;;;4991942;28;20498;-88
2023/07/16 05:04:32;;;;;;;11.75;4.82;;;28.90;91.20;;;;;;4990720;28;20418;-87
2023/07/16 05:07:01;;;;;;;11.35;4.30;;;29.00;90.80;;;;;;4975511;28;20513;-88
2023/07/16 05:09:28;;;;;;;12.20;4.68;;;29.00;91.20;;;;;;4989138;28;20699;-88
2023/07/16 05:11:55;;;;;;;13.77;4.10;;;29.00;90.90;;;;;;4975706;28;20798;-87
2023/07/16 05:14:22;;;;;;;12.33;4.10;;;29.00;91.00;;;;;;4985807;28;20526;-87
2023/07/16 05:16:50;;;;;;;12.35;4.40;;;29.00;91.30;;;;;;4988313;28;20415;-88
2023/07/16 05:19:16;;;;;;;14.02;4.45;;;29.00;91.10;;;;;;4987061;28;20883;-86
2023/07/16 05:21:47;;;;;;;14.98;4.97;;;29.10;90.90;;;;;;5009516;28;20750;-87
2023/07/16 05:24:14;;;;;;;9.23;4.40;;;29.20;90.70;;;;;;5010409;28;20533;-88
2023/07/16 05:26:40;;;;;;;10.38;4.57;;;29.20;90.80;;;;;;5010001;28;20422;-87
2023/07/16 05:29:07;;;;;;;11.63;4.38;;;29.20;90.70;;;;;;5012035;28;20415;-87
2023/07/16 05:31:33;;;;;;;8.27;4.70;;;29.30;91.10;;;;;;5012654;28;20408;-89
2023/07/16 05:34:01;;;;;;;15.20;4.70;;;29.20;91.10;;;;;;4996851;28;20411;-88
2023/07/16 05:36:30;;;;;;;12.00;4.55;;;29.30;91.10;;;;;;4994618;28;20554;-87
2023/07/16 05:38:57;;;;;;;9.98;4.25;;;29.30;91.30;;;;;;4993826;28;20433;-87
2023/07/16 05:41:23;;;;;;;13.23;4.88;;;29.40;91.70;;;;;;4989891;28;21032;-87
2023/07/16 05:43:50;;;;;;;15.25;4.78;;;29.50;91.80;;;;;;5007959;28;20762;-88
2023/07/16 05:46:18;;;;;;;13.83;4.77;;;29.60;91.60;;;;;;4993570;28;20509;-87
2023/07/16 05:48:45;;;;;;;10.63;4.40;;;29.60;91.80;;;;;;5007571;28;20484;-88
2023/07/16 05:51:12;;;;;;;13.27;4.70;;;29.50;91.70;;;;;;4993531;28;20533;-87
2023/07/16 05:53:44;;;;;;;10.13;4.55;;;29.60;92.10;;;;;;4989620;28;20942;-88
2023/07/16 05:56:10;;;;;;;10.45;4.10;;;29.70;91.90;;;;;;4988627;28;20431;-88
2023/07/16 05:58:40;;;;;;;15.27;5.13;;;29.80;91.80;;;;;;5004724;28;20451;-87
2023/07/16 06:01:07;;;;;;;10.27;4.70;;;29.80;91.80;;;;;;5009966;28;20430;-87
2023/07/16 06:03:37;;;;;;;14.10;4.82;;;29.90;91.90;;;;;;5009130;28;20525;-88
2023/07/16 06:06:09;;;;;;;12.35;4.40;;;29.90;91.60;;;;;;5009206;28;20423;-87
2023/07/16 06:08:52;;;;;;;;;;;;;;;;;;;;;
2023/07/16 06:11:21;;;;;;;15.10;5.07;;;30.00;91.60;;;;;;4998687;28;20416;-92
2023/07/16 06:13:55;;;;;;;12.85;5.00;;;30.10;92.00;;;;;;4994523;28;20460;-88
2023/07/16 06:16:23;;;;;;;11.75;4.57;;;30.20;92.00;;;;;;5005408;28;20442;-91
2023/07/16 06:18:51;;;;;;;16.27;4.70;;;30.30;91.90;;;;;;4990488;28;20427;-92
2023/07/16 06:21:26;;;;;;;15.35;4.93;;;30.30;91.90;;;;;;5007394;28;20717;-91
2023/07/16 06:23:55;;;;;;;13.10;4.60;;;30.40;91.70;;;;;;5005359;28;20423;-90
2023/07/16 06:26:25;;;;;;;16.42;4.78;;;30.40;91.80;;;;;;4991291;28;20482;-88
2023/07/16 06:28:55;;;;;;;12.00;4.70;;;30.50;91.70;;;;;;5002855;28;20917;-88
2023/07/16 06:31:21;;;;;;;13.75;4.82;;;30.70;92.00;;;;;;4991926;28;20454;-87
2023/07/16 06:33:50;;;;;;;14.18;4.90;;;30.70;91.90;;;;;;5010720;28;20929;-88
2023/07/16 06:36:20;;;;;;;14.02;4.85;;;30.80;91.90;;;;;;4992565;28;20470;-88
2023/07/16 06:38:50;;;;;;;13.47;4.70;;;30.90;92.10;;;;;;5020310;28;20412;-88
2023/07/16 06:41:19;;;;;;;13.40;5.07;;;30.90;92.00;;;;;;5000634;28;20459;-87
2023/07/16 06:43:48;;;;;;;15.90;5.20;;;31.00;92.10;;;;;;4990251;28;20706;-89
2023/07/16 06:46:24;;;;;;;12.45;5.10;;;31.00;92.20;;;;;;4990215;28;20436;-89
2023/07/16 06:48:52;;;;;;;13.68;5.38;;;31.10;92.00;;;;;;5022715;28;20507;-87
2023/07/16 06:51:22;;;;;;;15.85;5.22;;;31.20;92.30;;;;;;5008624;28;20501;-88
2023/07/16 06:53:54;;;;;;;17.58;5.10;;;31.40;92.50;;;;;;5022419;28;20431;-89
2023/07/16 06:56:24;;;;;;;11.35;5.00;;;31.50;92.70;;;;;;4993867;28;20885;-89
2023/07/16 06:58:59;;;;;;;12.02;5.03;;;31.50;92.80;;;;;;5028715;28;20444;-89
2023/07/16 07:01:27;;;;;;;10.80;4.50;;;31.50;92.90;;;;;;5007282;28;20548;-90
2023/07/16 07:03:59;;;;;;;14.15;5.25;;;31.50;92.80;;;;;;4987203;28;20454;-92
2023/07/16 07:06:30;;;;;;;11.95;4.90;;;31.70;92.80;;;;;;5003421;28;20418;-86
2023/07/16 07:09:00;;;;;;;9.65;4.97;;;31.80;93.00;;;;;;4974334;28;20418;-92
2023/07/16 07:11:27;;;;;;;12.80;5.18;;;31.90;93.10;;;;;;4972451;28;20427;-89
2023/07/16 07:14:01;;;;;;;11.27;4.75;;;31.90;93.20;;;;;;4973043;28;20513;-90
2023/07/16 07:16:34;;;;;;;9.85;4.68;;;32.00;93.30;;;;;;4987935;28;20940;-88
2023/07/16 07:19:04;;;;;;;10.82;4.90;;;32.10;93.80;;;;;;4989722;28;20759;-89
2023/07/16 07:21:35;;;;;;;9.30;4.93;;;32.10;93.90;;;;;;5006758;28;20520;-88
2023/07/16 07:24:06;;;;;;;15.13;4.45;;;32.20;94.00;;;;;;4990493;28;20411;-89
2023/07/16 07:26:35;;;;;;;11.80;4.75;;;32.30;94.10;;;;;;5003736;28;20917;-89
2023/07/16 07:29:04;;;;;;;11.85;4.78;;;32.30;94.00;;;;;;4991275;28;20416;-90
2023/07/16 07:31:34;;;;;;;11.07;4.30;;;32.50;93.90;;;;;;4985230;28;20973;-89
2023/07/16 07:34:06;;;;;;;11.38;4.63;;;32.70;93.60;;;;;;4987264;28;20449;-88
2023/07/16 07:36:35;;;;;;;10.80;4.30;;;32.80;93.40;;;;;;4999008;28;20920;-87
2023/07/16 07:39:02;;;;;;;12.38;4.68;;;32.90;93.20;;;;;;4992589;28;20423;-88
2023/07/16 07:41:29;;;;;;;10.35;4.28;;;33.00;92.90;;;;;;5002915;28;20427;-88
2023/07/16 07:43:58;;;;;;;9.95;4.40;;;33.10;93.00;;;;;;5006560;28;20450;-87
2023/07/16 07:46:26;;;;;;;13.93;4.53;;;33.20;92.90;;;;;;5005943;28;20491;-88
2023/07/16 07:48:59;;;;;;;10.70;4.03;;;33.30;92.80;;;;;;5006868;28;20822;-90
2023/07/16 07:51:28;;;;;;;14.32;4.40;;;33.40;92.00;;;;;;5003922;28;20960;-91
2023/07/16 07:53:56;;;;;;;12.00;4.00;;;33.50;92.50;;;;;;5001038;28;20936;-89
2023/07/16 07:56:23;;;;;;;12.55;3.97;;;33.70;91.90;;;;;;4972428;28;20423;-90
2023/07/16 07:58:54;;;;;;;13.60;4.10;;;33.80;91.50;;;;;;5007287;28;20465;-87
2023/07/16 08:01:22;;;;;;;14.27;3.95;;;33.80;91.50;;;;;;5002003;28;20411;-85
2023/07/16 08:03:49;;;;;;;7.97;3.95;;;33.90;90.80;;;;;;4988739;28;20423;-89
2023/07/16 08:06:26;;;;;;;12.02;4.00;;;34.00;90.40;;;;;;4988401;28;20419;-89
2023/07/16 08:08:53;;;;;;;15.05;4.10;;;34.10;90.40;;;;;;5007416;28;20415;-90
2023/07/16 08:11:21;;;;;;;13.63;4.30;;;34.30;90.20;;;;;;5003699;28;20419;-89
2023/07/16 08:13:49;;;;;;;13.40;4.00;;;34.40;90.00;;;;;;5005671;28;20409;-86
2023/07/16 08:16:15;;;;;;;10.80;4.20;;;34.60;90.30;;;;;;5007852;28;20731;-88
2023/07/16 08:18:42;;;;;;;13.50;4.23;;;34.80;90.20;;;;;;5022573;28;21990;-89
2023/07/16 08:21:09;;;;;;;17.65;4.72;;;34.90;90.20;;;;;;4980776;28;20411;-88
2023/07/16 08:23:38;;;;;;;14.15;4.57;;;35.00;89.80;;;;;;4973075;28;20440;-89
2023/07/16 08:26:12;;;;;;;10.98;4.10;;;35.10;88.30;;;;;;4989329;28;20426;-90
2023/07/16 08:28:39;;;;;;;12.73;4.07;;;35.30;87.70;;;;;;4989264;28;20411;-89
2023/07/16 08:31:28;;;;;;;12.90;4.32;;;35.40;88.20;;;;;;5003160;28;20453;-92
2023/07/16 08:33:59;;;;;;;10.30;3.67;;;35.50;85.90;;;;;;5023140;28;20509;-87
2023/07/16 08:36:27;;;;;;;11.40;4.45;;;35.70;86.10;;;;;;4990575;28;20857;-89
2023/07/16 08:38:57;;;;;;;10.37;4.17;;;35.80;85.60;;;;;;4978329;28;20525;-89
2023/07/16 08:41:28;;;;;;;9.90;3.97;;;35.90;85.00;;;;;;4983321;28;20956;-86
2023/07/16 08:44:00;;;;;;;11.73;4.20;;;36.10;84.00;;;;;;5000490;28;20635;-89
2023/07/16 08:46:29;;;;;;;12.18;4.10;;;36.20;83.10;;;;;;4981639;28;20427;-88
2023/07/16 08:48:57;;;;;;;10.50;4.03;;;36.40;82.80;;;;;;4971199;28;20423;-89
2023/07/16 08:51:26;;;;;;;8.88;3.85;;;36.40;81.70;;;;;;5004593;28;20528;-89
2023/07/16 08:53:53;;;;;;;20.67;4.43;;;36.50;81.20;;;;;;5000102;28;21421;-88
2023/07/16 08:56:23;;;;;;;9.63;3.85;;;36.70;81.10;;;;;;4983064;28;20418;-85
2023/07/16 08:58:57;;;;;;;11.63;4.28;;;36.80;80.10;;;;;;4989410;28;20984;-90
2023/07/16 09:01:27;;;;;;;10.93;4.18;;;36.80;80.30;;;;;;4988981;28;20513;-87
2023/07/16 09:03:56;;;;;;;9.53;3.97;;;37.00;79.10;;;;;;4989722;28;20421;-88
2023/07/16 09:06:32;;;;;;;10.55;3.83;;;37.10;80.20;;;;;;4999914;28;20409;-92
2023/07/16 09:09:03;;;;;;;7.95;3.72;;;37.10;79.90;;;;;;5000795;28;20446;-90
2023/07/16 09:11:34;;;;;;;9.50;3.97;;;37.30;77.60;;;;;;5005248;28;20445;-90
2023/07/16 09:14:06;;;;;;;8.30;3.95;;;37.30;76.70;;;;;;5000243;28;20494;-90
2023/07/16 09:35:17;;;;;;;10.98;3.95;;;38.20;76.80;;;;;;5006693;28;20476;-88
2023/07/16 09:37:51;;;;;;;7.03;3.70;;;38.10;75.80;;;;;;5003823;28;20429;-89
2023/07/16 09:40:20;;;;;;;10.68;4.28;;;38.20;76.70;;;;;;5006683;28;20872;-86
2023/07/16 09:42:50;;;;;;;8.63;4.23;;;38.20;75.80;;;;;;5003549;28;20435;-87
2023/07/16 09:45:23;;;;;;;9.70;3.95;;;38.30;75.50;;;;;;4987236;28;20551;-89
2023/07/16 09:47:50;;;;;;;9.88;4.03;;;38.50;76.20;;;;;;4992239;28;20425;-91
2023/07/16 09:50:33;;;;;;;8.90;3.70;;;38.50;76.00;;;;;;5015305;28;20907;-89
2023/07/16 09:53:07;;;;;;;8.20;3.78;;;38.40;75.60;;;;;;4988540;28;20496;-89
2023/07/16 09:55:36;;;;;;;10.40;4.10;;;38.50;76.20;;;;;;5010838;28;20502;-90
2023/07/16 09:58:11;;;;;;;9.82;3.92;;;38.60;76.10;;;;;;4952819;28;20458;-89
2023/07/16 10:00:41;;;;;;;8.55;4.07;;;38.80;75.90;;;;;;4979913;28;20216;-92
2023/07/16 10:03:12;;;;;;;9.10;4.00;;;38.80;75.90;;;;;;4975240;28;20192;-94
2023/07/16 10:05:39;;;;;;;7.00;3.58;;;38.70;75.60;;;;;;4996705;28;20193;-86
2023/07/16 10:08:19;;;;;;;11.45;3.65;;;38.70;75.60;;;;;;5010847;28;20234;-90
2023/07/16 10:10:58;;;;;;;6.97;3.60;;;38.80;75.10;;;;;;4979270;28;20188;-92
2023/07/16 10:13:29;;;;;;;8.75;3.60;;;38.80;75.90;;;;;;5004659;28;20426;-88
2023/07/16 10:16:05;;;;;;;12.27;4.05;;;38.70;75.70;;;;;;4993785;28;20194;-90
2023/07/16 10:18:44;;;;;;;15.85;4.53;;;38.70;76.30;;;;;;5002627;28;20187;-88
2023/07/16 10:21:11;;;;;;;9.93;3.70;;;38.50;75.40;;;;;;5010939;28;20610;-87
2023/07/16 10:24:11;;;;;;;7.38;3.60;;;38.20;76.10;;;;;;4998993;28;20215;-87
2023/07/16 10:26:40;;;;;;;14.27;3.47;;;38.00;75.20;;;;;;4973216;28;20196;-89
2023/07/16 10:29:07;;;;;;;6.95;3.67;;;38.00;75.80;;;;;;4978675;28;20197;-89
2023/07/16 10:31:47;;;;;;;8.10;3.60;;;38.20;75.30;;;;;;4993034;28;20651;-88
2023/07/16 10:34:16;;;;;;;10.02;3.80;;;38.10;75.40;;;;;;4989815;28;20195;-91
2023/07/16 10:36:44;;;;;;;9.70;3.58;;;38.00;75.10;;;;;;5007423;28;20192;-92
2023/07/16 10:39:25;;;;;;;8.15;3.97;;;38.00;74.90;;;;;;5020836;28;20662;-89
2023/07/16 10:41:58;;;;;;;8.60;3.70;;;38.00;75.80;;;;;;4982730;28;20388;-89
2023/07/16 10:44:28;;;;;;;9.55;3.83;;;37.90;74.90;;;;;;5009512;28;20176;-88
2023/07/16 10:46:56;;;;;;;7.03;3.42;;;37.90;74.60;;;;;;4991840;28;20188;-93
2023/07/16 10:51:50;;;;;;;16.42;3.80;;;37.80;74.40;;;;;;5096546;27;20306;-84
2023/07/16 10:54:20;;;;;;;7.07;3.30;;;37.80;74.30;;;;;;5044123;28;20242;-87
2023/07/16 10:57:06;;;;;;;10.20;3.90;;;37.70;73.60;;;;;;5044203;28;20641;-88
2023/07/16 10:59:40;;;;;;;7.28;3.65;;;37.70;73.40;;;;;;5076082;28;20187;-91
2023/07/16 11:02:22;;;;;;;10.50;3.72;;;37.60;74.10;;;;;;5060143;28;20198;-85
2023/07/16 11:05:14;;;;;;;8.05;3.58;;;37.60;73.80;;;;;;5044876;28;20187;-85
2023/07/16 11:07:55;;;;;;;11.55;3.60;;;37.50;72.50;;;;;;5043626;28;21038;-88
2023/07/16 11:10:23;;;;;;;9.18;3.60;;;37.40;72.70;;;;;;5042215;28;20290;-83
2023/07/16 11:12:55;;;;;;;11.40;3.60;;;37.30;73.80;;;;;;5044307;28;20557;-85
2023/07/16 11:15:50;;;;;;;7.65;3.88;;;37.20;73.60;;;;;;5044073;28;20179;-90
2023/07/16 11:18:24;;;;;;;4.72;3.38;;;37.20;74.10;;;;;;5073517;28;20188;-86
2023/07/16 11:20:52;;;;;;;5.43;3.30;;;37.20;72.30;;;;;;5041375;28;20183;-85
2023/07/16 11:23:23;;;;;;;14.30;3.75;;;37.20;71.80;;;;;;5060273;28;20180;-88
2023/07/16 11:25:52;;;;;;;10.80;3.45;;;37.10;72.50;;;;;;5055365;28;20180;-83
2023/07/16 11:28:23;;;;;;;10.48;2.83;;;37.10;71.50;;;;;;5066486;28;20203;-85
2023/07/16 11:30:52;;;;;;;6.50;2.88;;;37.00;70.00;;;;;;5034843;28;20205;-83
2023/07/16 11:33:20;;;;;;;7.75;2.80;;;37.10;68.40;;;;;;5047579;28;20276;-84
2023/07/16 11:35:48;;;;;;;7.55;3.45;;;37.10;68.80;;;;;;5046902;28;20184;-91
2023/07/16 11:38:24;;;;;;;7.10;3.10;;;37.10;70.10;;;;;;5016312;28;20184;-83
2023/07/16 11:40:51;;;;;;;3.83;2.58;;;37.00;70.50;;;;;;5039663;28;20195;-84
2023/07/16 11:43:20;;;;;;;11.13;3.50;;;37.00;69.90;;;;;;5046377;28;20207;-86
2023/07/16 11:45:53;;;;;;;5.97;2.88;;;37.00;70.40;;;;;;5009880;28;20894;-89
2023/07/16 11:48:34;;;;;;;5.90;2.92;;;37.00;71.00;;;;;;5061856;28;20595;-86
2023/07/16 11:51:10;;;;;;;6.97;2.70;;;37.00;69.60;;;;;;5075745;28;20207;-85
2023/07/16 11:53:36;;;;;;;4.22;3.10;;;37.00;69.10;;;;;;5056003;28;20663;-86
2023/07/16 11:56:03;;;;;;;6.40;3.45;;;37.00;69.50;;;;;;5043770;28;20190;-85
2023/07/16 11:58:49;;;;;;;5.30;2.80;;;36.90;69.60;;;;;;5045240;28;20188;-85
2023/07/16 12:01:20;;;;;;;6.25;2.78;;;36.80;68.90;;;;;;5074885;28;20191;-82
2023/07/16 12:03:59;;;;;;;10.55;3.35;;;36.80;69.30;;;;;;5032728;28;20192;-85
2023/07/16 12:06:27;;;;;;;7.07;2.92;;;36.90;68.10;;;;;;5030644;28;20184;-84
2023/07/16 12:08:55;;;;;;;5.22;3.05;;;36.90;69.40;;;;;;5032820;28;20824;-82
2023/07/16 12:11:22;;;;;;;10.25;2.67;;;36.90;68.20;;;;;;5051528;28;20276;-87
2023/07/16 12:14:17;;;;;;;4.22;2.70;;;36.90;66.60;;;;;;5005043;28;20193;-89
2023/07/16 12:16:43;;;;;;;8.82;2.88;;;36.80;67.40;;;;;;5048029;28;20212;-87
2023/07/16 12:19:16;;;;;;;8.73;2.97;;;36.80;68.00;;;;;;5030972;28;20199;-88
2023/07/16 12:45:35;;;;;;;6.25;3.05;;;36.70;65.60;;;;;;5030080;28;21112;-70
2023/07/16 12:48:02;;;;;;;6.20;3.30;;;36.60;70.30;;;;;;5035466;28;20885;-70
2023/07/16 12:50:29;;;;;;;8.82;2.70;;;36.70;69.30;;;;;;5031937;28;20261;-70
2023/07/16 12:52:55;;;;;;;6.85;2.83;;;36.70;69.20;;;;;;5035285;28;20229;-70
2023/07/16 12:55:23;;;;;;;8.57;2.85;;;36.70;66.80;;;;;;5038481;28;20198;-70
2023/07/16 12:57:50;;;;;;;7.20;3.00;;;36.60;64.90;;;;;;5032745;28;20188;-71
2023/07/16 13:00:16;;;;;;;4.22;2.58;;;36.60;63.80;;;;;;5034268;28;20183;-71
2023/07/16 13:02:42;;;;;;;4.53;3.10;;;36.50;65.50;;;;;;5036966;28;20565;-70
2023/07/16 13:05:08;;;;;;;5.63;2.60;;;36.60;64.70;;;;;;5034622;28;20208;-70
2023/07/16 13:07:35;;;;;;;7.07;3.45;;;36.50;64.70;;;;;;5035081;28;20534;-70
2023/07/16 13:10:01;;;;;;;8.00;2.97;;;36.50;64.90;;;;;;5035063;28;20549;-70
2023/07/16 13:12:27;;;;;;;8.60;2.88;;;36.50;64.30;;;;;;5020534;28;20184;-71
2023/07/16 13:14:54;;;;;;;4.72;3.08;;;36.50;64.70;;;;;;5033879;28;20281;-70
2023/07/16 13:17:20;;;;;;;7.63;3.08;;;36.50;66.40;;;;;;5029270;28;20527;-70
2023/07/16 13:19:46;;;;;;;4.40;2.60;;;36.50;65.70;;;;;;5034395;28;20453;-70
2023/07/16 13:22:14;;;;;;;7.43;2.78;;;36.50;65.00;;;;;;5016641;28;20193;-70
2023/07/16 13:24:40;;;;;;;5.75;2.60;;;36.50;65.60;;;;;;5029032;28;20210;-70
2023/07/16 13:27:10;;;;;;;4.43;2.70;;;36.40;65.50;;;;;;5031696;28;20192;-70
2023/07/16 13:29:36;;;;;;;4.68;3.03;;;36.40;65.80;;;;;;5034105;28;20195;-71
2023/07/16 13:32:03;;;;;;;4.57;2.83;;;36.50;65.00;;;;;;5036063;28;20246;-70
2023/07/16 13:34:29;;;;;;;6.13;2.95;;;36.40;66.00;;;;;;5048218;28;20664;-70
2023/07/16 13:36:55;;;;;;;10.30;3.00;;;36.50;65.30;;;;;;5029549;28;20187;-70
2023/07/16 13:39:21;;;;;;;4.22;2.75;;;36.40;65.90;;;;;;5032003;28;20681;-70
2023/07/16 13:41:48;;;;;;;6.13;2.92;;;36.40;66.90;;;;;;5030970;28;20238;-70